x

Grand Traverse Light, Mi (gtlm4) Weather Station

2:40am - Thu 5th Mar 2015 All times are CST. -6 hours from GMT.

  • Wind
  • Air Temp -2°f
  • Sea Pressure 1027.8mb
  • Grand Traverse Light, Mi
  • Grand Traverse Light, Mi

More Historic Weather Station data

Upgrade to MSW Pro to gain access to the past 30 days of data for over 8000 Wavebouys and Weather Stations around the globe.

Join Pro

Comparision Forecast

View Surf forecast
   
Thu 03/05 2:40am  -  2 mph 1027.8mb -2f
2:30am 1 6 mph 1027.8mb -1f
2:20am 2 6 mph 1028.1mb -1f
2:10am 2 5 mph 1028.1mb -1f
2:00am 1 5 mph 1028.4mb -1f
1:40am 2 6 mph 1027.8mb -2f
1:30am 2 7 mph 1028.1mb -1f
1:20am  -  5 mph 1027.8mb -1f
1:10am 1 3 mph 1027.8mb -2f
1:00am  -  2 mph 1027.4mb -2f
12:40am  -  6 mph 1027.4mb -2f
12:30am 5 6 mph 1027.4mb -1f
12:20am 5 7 mph 1027.8mb -1f
12:10am 6 8 mph 1027.4mb -
12:00am 6 8 mph 1027.4mb -
Wed 03/04 11:40pm 8 10 mph 1027.1mb 1f
11:30pm 9 13 mph 1026.8mb 1f
11:20pm 10 14 mph 1026.4mb 1f
11:10pm 10 13 mph 1026.8mb 1f
11:00pm 10 13 mph 1027.1mb 1f
10:40pm 9 11 mph 1026.8mb 1f
10:30pm 7 9 mph 1026.1mb 1f
10:20pm 6 7 mph 1026.1mb 1f
10:10pm 6 8 mph 1026.1mb 1f
10:00pm 6 9 mph 1026.1mb 1f
9:40pm 7 9 mph 1025.7mb 1f
9:30pm 5 7 mph 1025.7mb -
9:20pm 7 9 mph 1025.4mb -
9:10pm 7 8 mph 1025.1mb -
9:00pm 6 8 mph 1024.7mb -
8:40pm 6 8 mph 1025.1mb 1f
8:30pm 6 9 mph 1024.7mb 1f
8:20pm 6 9 mph 1024.7mb 1f
8:10pm 8 9 mph 1024.4mb 1f
8:00pm 7 9 mph 1024.4mb 2f
7:40pm 8 11 mph 1023.7mb 2f
7:30pm 10 13 mph 1023.7mb 3f
7:20pm 9 13 mph 1023.7mb 3f
7:10pm 10 15 mph 1023.4mb 4f
7:00pm 9 13 mph 1023.4mb 4f
6:40pm 10 13 mph 1022.7mb 4f
6:30pm 13 17 mph 1022.4mb 5f
6:20pm 13 17 mph 1022mb 5f
6:10pm 13 17 mph 1021.7mb 6f
6:00pm 15 18 mph 1021.3mb 7f
5:40pm 17 24 mph 1021mb 7f
5:30pm 20 23 mph 1020.7mb 7f
5:20pm 20 23 mph 1020.3mb 8f
5:10pm 22 24 mph 1020.3mb 8f
5:00pm 20 24 mph 1020mb 10f
4:40pm 14 18 mph 1019mb 11f
4:30pm 16 23 mph 1018.6mb 11f
4:20pm 23 26 mph 1018.3mb 12f
4:10pm 18 26 mph 1018.3mb 11f
4:00pm 18 25 mph 1018.3mb 13f
3:40pm 17 26 mph 1018.3mb 14f
3:30pm 20 24 mph 1017.9mb 14f
3:20pm 21 23 mph 1017.9mb 13f
3:10pm 18 23 mph 1017.6mb 13f
3:00pm 18 25 mph 1017.6mb 12f
2:40pm 22 28 mph 1017.6mb 13f
2:30pm 22 26 mph 1017.3mb 12f
2:20pm 20 24 mph 1017.3mb 13f
2:10pm 18 24 mph 1017.6mb 13f
2:00pm 18 23 mph 1017.3mb 12f
1:40pm 22 26 mph 1016.9mb 13f
1:30pm 22 25 mph 1016.9mb 13f
1:20pm 21 25 mph 1016.9mb 13f
1:10pm 23 25 mph 1016.9mb 13f
1:00pm 20 23 mph 1016.9mb 13f
12:40pm 17 24 mph 1017.3mb 13f
12:30pm 17 23 mph 1017.6mb 13f
12:20pm 21 24 mph 1017.3mb 13f
12:10pm 18 21 mph 1017.3mb 13f
12:00pm 18 22 mph 1017.3mb 13f
11:40am 17 22 mph 1016.9mb 14f
11:30am 21 24 mph 1016.6mb 14f
11:20am 20 21 mph 1016.3mb 14f
11:10am 16 20 mph 1016.3mb 14f
11:00am 17 20 mph 1015.9mb 14f
10:40am 15 20 mph 1016.3mb 13f
10:30am 17 21 mph 1015.9mb 13f
10:20am 16 20 mph 1015.9mb 13f
10:10am 16 21 mph 1015.9mb 13f
10:00am 17 23 mph 1015.9mb 12f
9:40am 18 24 mph 1015.9mb 12f
9:30am 18 28 mph 1015.9mb 12f
9:20am 21 25 mph 1015.9mb 13f
9:10am 21 26 mph 1015.6mb 13f
9:00am 20 24 mph 1015.2mb 14f
8:40am 18 23 mph 1015.2mb 14f
8:30am 14 18 mph 1014.9mb 14f
8:20am 16 22 mph 1014.9mb 14f
8:10am 14 20 mph 1014.6mb 14f
8:00am 13 16 mph 1014.6mb 15f
7:40am 14 16 mph 1014.2mb 15f
7:30am 8 13 mph 1013.9mb 15f
7:20am 8 10 mph 1013.9mb 15f
7:10am 5 9 mph 1013.5mb 15f
7:00am 5 7 mph 1013.2mb 15f
6:40am 7 9 mph 1013.2mb 15f
6:30am 7 9 mph 1013.2mb 15f
6:20am 6 8 mph 1012.9mb 15f
6:10am 8 9 mph 1012.5mb 15f
6:00am 7 9 mph 1012.5mb 15f
5:40am 7 9 mph 1012.2mb 16f
5:30am 7 13 mph 1012.2mb 16f
5:20am 10 14 mph 1011.9mb 16f
5:10am 11 15 mph 1011.9mb 16f
5:00am 11 17 mph 1011.5mb 17f
4:40am 8 9 mph 1011.2mb 18f
4:30am 8 10 mph 1011.2mb 19f
4:20am 9 11 mph 1010.8mb 18f
4:10am 8 11 mph 1010.8mb 18f
4:00am 9 10 mph 1010.5mb 18f
3:40am 10 11 mph 1010.2mb 17f
3:30am 10 13 mph 1009.8mb 17f
3:20am 11 14 mph 1009.5mb 17f
3:10am 10 14 mph 1009.8mb 17f
3:00am 14 16 mph 1009.5mb 17f
2:50am 13 15 mph 1009.5mb 16f
2:40am 10 14 mph 1009.1mb 16f
2:30am 13 15 mph 1009.1mb 15f
2:20am 14 16 mph 1008.8mb 16f
2:10am 14 17 mph 1008.8mb 16f
2:00am 15 20 mph 1008.8mb 17f
1:50am 17 23 mph 1008.5mb 18f
1:40am 18 22 mph 1008.5mb 19f
1:30am 17 22 mph 1008.5mb 19f
1:20am 16 21 mph 1008.5mb 20f
1:10am 16 20 mph 1008.5mb 20f
1:00am 16 21 mph 1008.5mb 20f
12:50am 16 22 mph 1008.1mb 20f
12:40am 18 22 mph 1007.8mb 21f
12:30am 17 24 mph 1007.5mb 22f
12:20am 18 28 mph 1007.5mb 22f
12:10am 18 22 mph 1007.1mb 22f
12:00am 18 28 mph 1006.8mb 23f
Tue 03/03 11:50pm 22 25 mph 1006.4mb 23f
11:40pm 20 22 mph 1006.1mb 23f
11:30pm 17 20 mph 1006.1mb 23f
11:20pm 16 18 mph 1006.1mb 22f
11:10pm 13 16 mph 1005.8mb 22f
11:00pm 14 16 mph 1005.8mb 22f
10:50pm 13 15 mph 1006.1mb 23f
10:40pm 13 16 mph 1006.1mb 24f
10:30pm 13 17 mph 1006.1mb 24f
10:20pm 16 20 mph 1006.1mb 25f
10:10pm 17 20 mph 1005.8mb 26f
10:00pm 15 20 mph 1005.8mb 26f
9:50pm 13 17 mph 1005.8mb 26f
9:40pm 16 18 mph 1005.4mb 26f
9:30pm 15 17 mph 1005.4mb 26f
9:20pm 16 18 mph 1005.1mb 26f
9:10pm 15 17 mph 1005.1mb 25f
9:00pm 9 24 mph 1004.7mb 24f
8:50pm 13 15 mph 1004.4mb 24f
8:40pm 14 15 mph 1004.4mb 23f
8:30pm 10 15 mph 1004.1mb 22f
8:20pm 13 15 mph 1003.7mb 20f
8:10pm 11 14 mph 1003.7mb 20f
8:00pm 13 15 mph 1003.4mb 20f
7:50pm 14 16 mph 1003.4mb 21f
7:40pm 14 16 mph 1003.4mb 21f
7:30pm 16 20 mph 1003.4mb 22f
7:20pm 16 21 mph 1003mb 22f
7:10pm 17 22 mph 1003mb 23f
7:00pm 16 20 mph 1002.7mb 23f
6:50pm 18 23 mph 1002.7mb 24f
6:40pm 20 22 mph 1002.4mb 24f
6:30pm 20 23 mph 1002mb 24f
6:20pm 18 23 mph 1002mb 24f
6:10pm 21 24 mph 1001.4mb 24f
6:00pm 18 22 mph 1001.4mb 24f
5:50pm 16 21 mph 1000.7mb 25f
5:40pm 17 22 mph 1000.3mb 26f
5:30pm 20 23 mph 1000mb 27f
5:20pm 16 20 mph 1000mb 27f
5:10pm 14 17 mph 1000mb 26f
5:00pm 7 10 mph 1000mb 26f
4:50pm 5 9 mph 1000mb 26f
4:40pm 2 8 mph 1000mb 26f
4:30pm 3 8 mph 999.7mb 26f
4:20pm 3 9 mph 1000mb 26f
4:10pm 2 8 mph 1000mb 26f
4:00pm 2 9 mph 1000mb 26f
3:50pm 3 8 mph 1000.3mb 26f
3:40pm 3 10 mph 1000.3mb 26f
3:30pm 1 10 mph 1000.3mb 26f
3:20pm 6 10 mph 1000.3mb 26f
3:10pm  -  9 mph 1000.3mb 26f
3:00pm 5 10 mph 1000.3mb 26f
2:50pm 7 10 mph 1000.3mb 26f
2:40pm 2 10 mph 1000.7mb 26f
2:30pm 2 9 mph 1001mb 26f
2:20pm  -  10 mph 1001.4mb 25f
2:10pm 5 9 mph 1001.4mb 25f
2:00pm 5 10 mph 1001.4mb 25f
1:50pm 3 9 mph 1002mb 25f
1:40pm 2 14 mph 1002mb 25f
1:30pm 3 15 mph 1002.4mb 25f
1:20pm 2 16 mph 1002.7mb 26f
1:10pm 7 16 mph 1003mb 25f
1:00pm 7 13 mph 1003.4mb 25f
12:50pm 2 13 mph 1003.7mb 25f
12:40pm 3 16 mph 1003.4mb 25f
12:30pm 7 13 mph 1003.4mb 25f
12:20pm 6 14 mph 1004.1mb 25f
12:10pm 1 10 mph 1004.4mb 25f
12:01pm 7 15 mph 1004.7mb 25f
12:00pm 7 11 mph 1005.1mb 25f
11:50am 5 10 mph 1005.8mb 25f
11:40am 6 14 mph 1006.4mb 24f
11:30am 5 13 mph 1006.8mb 24f
11:20am 5 13 mph 1007.1mb 24f
11:10am 3 17 mph 1007.1mb 24f
11:01am 5 17 mph 1007.5mb 24f
11:00am 5 16 mph 1007.5mb 24f
10:40am 3 17 mph 1008.1mb 24f
10:30am 5 14 mph 1008.8mb 24f
10:20am 2 14 mph 1008.8mb 24f
10:10am 5 15 mph 1009.5mb 24f
10:00am 6 16 mph 1009.5mb 23f
9:40am 5 16 mph 1010.2mb 23f
9:30am 8 18 mph 1010.5mb 23f
9:20am 10 17 mph 1010.8mb 23f
9:10am 3 16 mph 1011.5mb 23f
9:00am 5 15 mph 1011.9mb 23f
8:50am 7 17 mph 1012.2mb 23f
8:40am 5 22 mph 1012.2mb 23f
8:30am 8 17 mph 1012.2mb 23f
8:20am 3 17 mph 1012.9mb 23f
8:10am 5 14 mph 1012.9mb 22f
8:00am 9 13 mph 1013.5mb 22f
7:50am 3 16 mph 1013.9mb 22f
7:40am 6 15 mph 1013.9mb 21f
7:30am 3 15 mph 1014.2mb 21f
7:20am 6 14 mph 1014.6mb 21f
7:10am 6 13 mph 1014.9mb 20f
7:00am 3 13 mph 1015.6mb 20f
6:50am 7 15 mph 1015.6mb 20f
6:41am 7 15 mph 1015.9mb 20f
6:40am 7 14 mph 1015.9mb 20f
6:30am 6 13 mph 1016.3mb 19f
6:20am 2 11 mph 1016.6mb 19f
6:10am 6 13 mph 1016.6mb 19f
6:00am 6 11 mph 1016.6mb 19f
5:50am 6 15 mph 1016.9mb 19f
5:41am 8 15 mph 1016.9mb 19f
5:40am 8 15 mph 1017.3mb 19f
5:30am 7 15 mph 1017.3mb 18f
5:20am 5 14 mph 1017.9mb 18f
5:10am 6 10 mph 1018.3mb 18f
5:00am 6 10 mph 1018.3mb 18f
4:50am 7 13 mph 1018.3mb 17f
4:40am 3 13 mph 1018.6mb 17f
4:30am 8 14 mph 1019mb 17f
4:20am 6 10 mph 1019.3mb 16f
4:10am 7 14 mph 1019.3mb 16f
4:00am 6 11 mph 1019.6mb 16f
3:50am 6 13 mph 1020.3mb 16f
3:40am 7 14 mph 1020.3mb 16f
3:30am 8 11 mph 1020.7mb 16f
3:20am 5 14 mph 1021mb 16f
3:10am 6 10 mph 1021.3mb 15f
3:00am 5 11 mph 1021.3mb 15f
2:50am 6 13 mph 1021.7mb 15f
2:40am 7 13 mph 1022mb 15f
2:30am 6 14 mph 1022mb 15f
2:20am 6 13 mph 1022.4mb 15f
2:10am 7 13 mph 1022.7mb 14f
2:00am 6 13 mph 1022.7mb 14f
1:50am 7 13 mph 1023mb 13f
1:40am 7 11 mph 1023mb 13f
1:30am 6 11 mph 1023mb 13f
1:20am 5 11 mph 1023.7mb 13f
1:10am 6 11 mph 1023.7mb 13f
1:00am 5 11 mph 1024mb 14f
12:50am 6 10 mph 1024mb 14f
12:40am 5 11 mph 1024.4mb 15f
12:30am 5 11 mph 1024.4mb 15f
12:20am 6 11 mph 1024.4mb 15f
12:10am 5 11 mph 1024.7mb 14f
12:00am 5 10 mph 1025.1mb 14f
Mon 03/02 11:50pm 5 10 mph 1025.4mb 13f
11:40pm 3 10 mph 1025.7mb 13f
11:30pm 2 9 mph 1025.7mb 13f
11:20pm 3 8 mph 1025.7mb 12f
11:10pm 3 9 mph 1025.7mb 12f
11:00pm 5 9 mph 1025.7mb 12f
10:50pm 2 9 mph 1025.7mb 11f
10:40pm 2 9 mph 1026.1mb 11f
10:30pm 1 8 mph 1026.1mb 12f
10:20pm 3 10 mph 1026.1mb 12f
10:10pm 3 9 mph 1026.4mb 12f
10:00pm 2 8 mph 1026.4mb 11f
9:50pm 2 9 mph 1026.4mb 13f
9:40pm 2 9 mph 1026.4mb 13f
9:30pm 2 10 mph 1026.8mb 12f
9:20pm 5 9 mph 1026.8mb 13f
9:10pm 2 8 mph 1027.1mb 13f
9:00pm 5 8 mph 1027.1mb 13f
8:50pm 2 8 mph 1027.4mb 13f
8:40pm 3 11 mph 1027.4mb 13f
8:30pm 3 8 mph 1027.4mb 13f
8:20pm 3 11 mph 1027.8mb 13f
8:10pm  -  8 mph 1028.1mb 13f
8:00pm 3 9 mph 1027.8mb 13f
7:50pm 2 7 mph 1027.8mb 13f
7:40pm 1 9 mph 1028.1mb 14f
7:30pm 1 8 mph 1027.8mb 14f
7:20pm 5 9 mph 1028.1mb 14f
7:10pm 3 7 mph 1028.1mb 15f
7:00pm 3 9 mph 1028.4mb 15f
6:50pm 6 10 mph 1028.4mb 15f
6:40pm 3 10 mph 1028.8mb 15f
6:30pm 5 7 mph 1028.4mb 15f
6:20pm 1 5 mph 1028.8mb 15f
6:10pm  -  6 mph 1028.8mb 15f
6:00pm 1 7 mph 1029.1mb 16f
5:50pm 3 7 mph 1028.8mb 17f
5:40pm 2 9 mph 1029.1mb 18f
5:30pm 2 8 mph 1029.1mb 19f
5:20pm 3 6 mph 1029.5mb 20f
5:10pm 3 5 mph 1029.5mb 21f
5:00pm 3 5 mph 1029.5mb 21f
4:50pm 3 5 mph 1029.5mb 22f
4:40pm 5
mph
1029.8mb 22f
4:30pm  -  2 mph 1030.1mb 23f
4:20pm 2 3 mph 1030.1mb 23f
4:10pm 3 5 mph 1030.1mb 23f
4:00pm 3 5 mph 1030.1mb 23f
3:50pm 3 5 mph 1030.1mb 23f
3:40pm 5 7 mph 1030.5mb 23f
3:30pm 5 9 mph 1030.5mb 24f
3:20pm 8 9 mph 1030.5mb 23f
3:10pm 7 10 mph 1030.5mb 23f
3:00pm 8 9 mph 1030.5mb 24f
2:50pm 8 10 mph 1030.5mb 23f
2:40pm 7 10 mph 1030.8mb 23f
2:30pm 8 10 mph 1030.5mb 23f
2:20pm 7 10 mph 1030.5mb 23f
2:10pm 7 9 mph 1030.5mb 23f
2:00pm 8 10 mph 1030.5mb 23f
1:50pm 8 15 mph 1030.8mb 23f
1:40pm 11 14 mph 1031.2mb 23f
1:30pm 11 14 mph 1031.2mb 23f
1:20pm 10 13 mph 1031.2mb 23f
1:10pm 11 14 mph 1031.2mb 22f
1:00pm 10 14 mph 1031.2mb 22f
12:50pm 10 14 mph 1031.2mb 22f
12:40pm 8 14 mph 1031.2mb 22f
12:30pm 9 11 mph 1031.2mb 22f
12:20pm 8 10 mph 1031.2mb 22f
12:10pm 8 9 mph 1031.2mb 22f
12:00pm 8 9 mph 1031.2mb 22f
11:50am 7 11 mph 1031.2mb 22f
11:40am 10 13 mph 1031.2mb 22f
11:30am 9 14 mph 1031.2mb 22f
11:20am 11 14 mph 1031.2mb 22f
11:10am 13 16 mph 1031.2mb 21f
11:00am 15 17 mph 1031.2mb 21f
10:50am 15 17 mph 1030.8mb 21f
10:40am 14 17 mph 1030.8mb 21f
10:30am 14 16 mph 1030.8mb 21f
10:20am 14 17 mph 1030.5mb 21f
10:10am 15 18 mph 1030.1mb 21f
10:00am 13 17 mph 1030.5mb 21f
9:50am 11 16 mph 1030.5mb 21f
9:40am 11 15 mph 1030.1mb 21f
9:30am 9 15 mph 1030.5mb 20f
9:20am 8 11 mph 1030.5mb 20f
9:10am 8 10 mph 1030.5mb 20f
9:00am 8 10 mph 1030.5mb 18f
8:50am 8 9 mph 1030.1mb 18f
8:40am 8 9 mph 1030.1mb 17f
8:30am 8 9 mph 1030.1mb 18f
8:20am 8 10 mph 1029.8mb 17f
8:10am 8 9 mph 1029.8mb 16f
8:00am 8 13 mph 1029.5mb 15f
7:50am 10 14 mph 1029.5mb 15f
7:40am 8 9 mph 1029.5mb 15f
7:30am 8 10 mph 1029.1mb 15f
7:20am 8 11 mph 1029.1mb 14f
7:10am 8 10 mph 1028.8mb 15f
7:00am 8 16 mph 1028.4mb 15f
6:50am 13 16 mph 1028.4mb 15f
6:40am 11 16 mph 1028.4mb 16f
6:30am 11 14 mph 1028.1mb 15f
6:20am 8 10 mph 1028.1mb 15f
6:10am 8 9 mph 1028.1mb 14f
6:00am 8 9 mph 1027.8mb 15f
5:50am 8 11 mph 1027.8mb 14f
5:40am 10 13 mph 1027.1mb 15f
5:30am 9 15 mph 1027.1mb 15f
5:20am 10 15 mph 1027.1mb 15f
5:10am 11 16 mph 1027.1mb 16f
5:00am 13 17 mph 1026.8mb 17f
4:50am 15 20 mph 1026.8mb 17f
4:40am 14 17 mph 1026.4mb 17f
4:30am 8 9 mph 1026.1mb 16f
4:20am 8 15 mph 1025.7mb 17f
4:10am 11 15 mph 1025.7mb 17f
4:00am 10 15 mph 1025.4mb 17f
3:50am 11 14 mph 1025.4mb 16f
3:40am 13 20 mph 1025.1mb 17f
3:30am 15 17 mph 1025.1mb 17f
3:20am 16 20 mph 1024.7mb 17f
3:10am 16 20 mph 1024.4mb 18f
3:00am 15 18 mph 1024.4mb 18f
2:50am 15 18 mph 1024mb 18f
2:40am 16 18 mph 1024mb 18f
2:30am 15 18 mph 1023.7mb 18f
2:20am 16 21 mph 1023.7mb 18f
2:10am 15 20 mph 1023.7mb 18f
2:00am 16 20 mph 1023.7mb 18f
1:50am 16 22 mph 1023.4mb 19f
1:40am 16 20 mph 1023.4mb 18f
1:30am 16 18 mph 1023mb 19f
1:20am 14 17 mph 1023mb 18f
1:10am 14 16 mph 1022.7mb 18f
1:00am 15 18 mph 1022.7mb 19f
12:50am 14 17 mph 1022.4mb 19f
12:40am 16 20 mph 1022.4mb 19f
12:30am 16 20 mph 1022mb 19f
12:20am 15 18 mph 1022mb 20f
12:10am 15 17 mph 1021.7mb 20f
12:00am 14 17 mph 1021.7mb 19f
Sun 03/01 11:50pm 14 16 mph 1021.7mb 19f
11:40pm 13 16 mph 1021.7mb 19f
11:30pm 14 17 mph 1021.7mb 19f
11:20pm 14 17 mph 1021.7mb 20f
11:10pm 15 20 mph 1021.7mb 20f
11:00pm 16 20 mph 1021.7mb 20f
10:50pm 15 18 mph 1021.7mb 20f
10:40pm 16 20 mph 1021.3mb 20f
10:30pm 15 17 mph 1021.3mb 20f
10:20pm 15 20 mph 1021.3mb 20f
10:10pm 17 24 mph 1021.3mb 21f
10:00pm 23 28 mph 1021.7mb 22f
9:50pm 21 25 mph 1021mb 22f
9:40pm 17 24 mph 1021mb 22f
9:30pm 23 30 mph 1021mb 22f
9:20pm 24 29 mph 1020.7mb 22f
9:10pm 25 29 mph 1020.7mb 22f
9:00pm 21 28 mph 1020.3mb 22f
8:50pm 22 30 mph 1020.7mb 23f
8:40pm 23 31 mph 1020.3mb 23f
8:30pm 21 30 mph 1020.3mb 24f
8:20pm 24 30 mph 1020.3mb 24f
8:19pm 22 30 mph 1020mb 24f
8:10pm 16 22 mph 1020mb 24f
8:00pm 8 14 mph 1020mb 23f
7:50pm 7 10 mph 1020mb 23f
7:40pm 8 15 mph 1020mb 23f
7:30pm 7 15 mph 1020.3mb 23f
7:20pm 8 11 mph 1020.3mb 23f
7:10pm 7 15 mph 1020.3mb 23f
7:00pm 6 17 mph 1020.7mb 23f
6:50pm 8 17 mph 1020.7mb 23f
6:40pm 8 14 mph 1020.7mb 23f
6:30pm 7 11 mph 1020.3mb 23f
6:20pm 6 11 mph 1020.7mb 23f
6:10pm 8 16 mph 1020.7mb 23f
6:00pm 6 10 mph 1020.3mb 23f
5:50pm 7 17 mph 1020.7mb 23f
5:40pm 5 11 mph 1020.7mb 23f
5:30pm 5 10 mph 1020.7mb 23f
5:20pm 8 11 mph 1020.7mb 23f
5:10pm 9 18 mph 1020.7mb 23f
5:00pm 11 18 mph 1020.7mb 23f
4:50pm 9 21 mph 1021mb 23f
4:40pm 13 21 mph 1020.7mb 23f
4:30pm 15 20 mph 1021mb 23f
4:20pm 15 18 mph 1021mb 23f
4:10pm 16 21 mph 1021mb 23f
4:00pm 13 21 mph 1021.3mb 23f
3:50pm 14 20 mph 1021.3mb 24f
3:40pm 15 22 mph 1021.3mb 24f
3:30pm 16 23 mph 1021.3mb 24f
3:20pm 16 24 mph 1021.7mb 24f
3:10pm 20 24 mph 1021.7mb 24f
3:00pm 13 23 mph 1021.7mb 24f
2:50pm 16 26 mph 1022.4mb 24f
2:40pm 16 23 mph 1022mb 24f
2:30pm 17 24 mph 1022.4mb 24f
2:20pm 20 26 mph 1022.4mb 23f
2:10pm 22 25 mph 1022.4mb 23f
2:00pm 21 29 mph 1022.4mb 23f
1:50pm 21 25 mph 1022.4mb 23f
1:40pm 22 25 mph 1022.7mb 23f
1:30pm 23 26 mph 1022.7mb 23f
1:20pm 22 26 mph 1023mb 23f
1:10pm 22 26 mph 1023mb 23f
1:00pm 21 26 mph 1023mb 23f
12:50pm 21 26 mph 1023.4mb 24f
12:40pm 22 28 mph 1023.4mb 23f
12:30pm 21 26 mph 1023.7mb 23f
12:20pm 21 25 mph 1024mb 23f
12:10pm 17 25 mph 1024mb 23f
12:00pm 20 24 mph 1024mb 23f
11:50am 17 23 mph 1024.4mb 23f
11:40am 18 24 mph 1024.4mb 22f
11:30am 20 23 mph 1024.7mb 22f
11:20am 21 25 mph 1024.7mb 22f
11:10am 16 22 mph 1025.1mb 23f
11:00am 20 23 mph 1025.1mb 22f
10:50am 18 23 mph 1025.1mb 22f
10:40am 18 22 mph 1025.4mb 21f
10:30am 17 22 mph 1025.7mb 21f
10:20am 17 23 mph 1025.7mb 20f
10:10am 18 22 mph 1025.4mb 20f
10:00am 17 21 mph 1025.4mb 19f
9:50am 17 21 mph 1025.4mb 19f
9:40am 16 18 mph 1025.7mb 19f
9:30am 15 20 mph 1025.4mb 20f
9:20am 14 17 mph 1025.7mb 21f